createdAt,value
2022-11-19T00:01:12.795Z,-2.97
2022-11-19T00:03:40.564Z,-3.06
2022-11-19T00:06:21.952Z,-3.09
2022-11-19T00:08:48.836Z,-2.93
2022-11-19T00:11:39.075Z,-3.14
2022-11-19T00:14:06.001Z,-3.26
2022-11-19T00:16:32.742Z,-3.30
2022-11-19T00:18:59.497Z,-3.48
2022-11-19T00:21:26.028Z,-3.55
2022-11-19T00:23:55.976Z,-3.71
2022-11-19T00:26:23.299Z,-3.61
2022-11-19T00:28:49.857Z,-3.75
2022-11-19T00:31:16.791Z,-3.81
2022-11-19T00:33:44.753Z,-3.84
2022-11-19T00:36:15.845Z,-4.07
2022-11-19T00:38:43.222Z,-3.98
2022-11-19T00:41:09.916Z,-3.78
2022-11-19T00:43:48.901Z,-3.75
2022-11-19T00:46:19.875Z,-3.68
2022-11-19T00:48:47.919Z,-3.56
2022-11-19T00:51:15.856Z,-3.47
2022-11-19T00:53:42.393Z,-3.45
2022-11-19T00:56:11.550Z,-3.50
2022-11-19T00:58:39.216Z,-3.66
2022-11-19T01:01:06.808Z,-3.69
2022-11-19T01:03:33.826Z,-3.76
2022-11-19T01:06:00.900Z,-3.98
2022-11-19T01:08:27.648Z,-4.12
2022-11-19T01:10:54.140Z,-4.14
2022-11-19T01:13:36.132Z,-4.16
2022-11-19T01:16:17.877Z,-4.10
2022-11-19T01:18:46.870Z,-4.12
2022-11-19T01:21:14.583Z,-4.31
2022-11-19T01:23:42.638Z,-4.28
2022-11-19T01:26:10.551Z,-4.20
2022-11-19T01:28:37.181Z,-4.20
2022-11-19T01:31:12.482Z,-4.17
2022-11-19T01:33:39.532Z,-4.16
2022-11-19T01:36:10.618Z,-4.20
2022-11-19T01:38:37.231Z,-4.23
2022-11-19T01:41:04.383Z,-4.36
2022-11-19T01:43:46.281Z,-4.29
2022-11-19T01:46:15.143Z,-4.30
2022-11-19T01:48:49.667Z,-4.26
2022-11-19T01:51:54.256Z,-4.46
2022-11-19T01:54:30.088Z,-4.18
2022-11-19T01:57:01.756Z,-4.15
2022-11-19T01:59:30.044Z,-4.09
2022-11-19T02:01:56.992Z,-4.20
2022-11-19T02:04:24.196Z,-4.36
2022-11-19T02:06:51.361Z,-4.19
2022-11-19T02:09:18.490Z,-4.10
2022-11-19T02:12:15.670Z,-4.12
2022-11-19T02:14:54.824Z,-4.28
2022-11-19T02:17:30.446Z,-4.33
2022-11-19T02:20:13.486Z,-4.23
2022-11-19T02:23:24.100Z,-4.22
2022-11-19T02:26:15.879Z,-4.33
2022-11-19T02:28:54.526Z,-4.51
2022-11-19T02:31:45.616Z,-4.33
2022-11-19T02:34:38.778Z,-4.21
2022-11-19T02:37:12.535Z,-4.24
2022-11-19T02:40:04.019Z,-4.31
2022-11-19T02:42:41.564Z,-4.46
2022-11-19T02:45:19.644Z,-4.45
2022-11-19T02:47:46.072Z,-4.54
2022-11-19T02:50:17.826Z,-4.54
2022-11-19T02:52:46.322Z,-4.41
2022-11-19T02:55:18.882Z,-4.42
2022-11-19T02:57:55.506Z,-4.50
2022-11-19T03:00:41.044Z,-4.52
2022-11-19T03:03:33.293Z,-4.57
2022-11-19T03:06:05.554Z,-4.79
2022-11-19T03:08:32.213Z,-4.95
2022-11-19T03:11:06.548Z,-4.91
2022-11-19T03:14:24.167Z,-4.92
2022-11-19T03:17:12.590Z,-5.07
2022-11-19T03:19:45.938Z,-4.97
2022-11-19T03:22:36.627Z,-5.22
2022-11-19T03:25:18.634Z,-5.02
2022-11-19T03:27:52.645Z,-5.07
2022-11-19T03:30:20.176Z,-5.07
2022-11-19T03:32:49.577Z,-5.21
2022-11-19T03:35:21.688Z,-5.15
2022-11-19T03:37:52.481Z,-5.35
2022-11-19T03:40:20.024Z,-5.41
2022-11-19T03:42:51.041Z,-5.43
2022-11-19T03:45:24.361Z,-5.28
2022-11-19T03:47:52.678Z,-5.38
2022-11-19T03:50:28.679Z,-5.31
2022-11-19T03:52:59.936Z,-5.47
2022-11-19T03:55:41.213Z,-5.38
2022-11-19T03:58:10.902Z,-5.39
2022-11-19T04:00:37.763Z,-5.36
2022-11-19T04:03:04.923Z,-5.27
2022-11-19T04:05:31.402Z,-5.24
2022-11-19T04:07:57.905Z,-5.20
2022-11-19T04:10:24.403Z,-5.25
2022-11-19T04:12:50.988Z,-5.30
2022-11-19T04:15:17.484Z,-5.14
2022-11-19T04:17:44.029Z,-4.98
2022-11-19T04:20:10.777Z,-4.94
2022-11-19T04:22:37.337Z,-4.92
2022-11-19T04:25:04.142Z,-4.90
2022-11-19T04:27:30.673Z,-4.91
2022-11-19T04:29:57.160Z,-4.88
2022-11-19T04:32:23.645Z,-5.05
2022-11-19T04:34:50.129Z,-5.14
2022-11-19T04:37:16.616Z,-5.10
2022-11-19T04:39:43.110Z,-5.03
2022-11-19T04:42:09.663Z,-4.92
2022-11-19T04:44:36.216Z,-4.94
2022-11-19T04:47:02.784Z,-5.11
2022-11-19T04:49:29.269Z,-5.24
2022-11-19T04:51:55.828Z,-5.40
2022-11-19T04:54:22.294Z,-5.65
2022-11-19T04:56:52.003Z,-5.57
2022-11-19T04:59:18.746Z,-5.58
2022-11-19T05:01:45.719Z,-5.61
2022-11-19T05:04:12.458Z,-5.53
2022-11-19T05:06:38.934Z,-5.75
2022-11-19T05:09:05.486Z,-5.57
2022-11-19T05:11:31.972Z,-5.71
2022-11-19T05:13:58.434Z,-5.68
2022-11-19T05:16:24.984Z,-5.58
2022-11-19T05:18:51.460Z,-5.70
2022-11-19T05:21:17.971Z,-5.47
2022-11-19T05:23:44.479Z,-5.37
2022-11-19T05:26:10.973Z,-5.29
2022-11-19T05:28:39.880Z,-5.30
2022-11-19T05:31:07.921Z,-5.31
2022-11-19T05:33:34.863Z,-5.33
2022-11-19T05:36:02.127Z,-5.57
2022-11-19T05:38:28.602Z,-5.69
2022-11-19T05:40:55.084Z,-5.83
2022-11-19T05:43:21.731Z,-5.69
2022-11-19T05:45:48.218Z,-5.62
2022-11-19T05:48:14.692Z,-5.78
2022-11-19T05:50:44.004Z,-5.80
2022-11-19T05:53:10.550Z,-5.93
2022-11-19T05:55:37.106Z,-5.97
2022-11-19T05:58:03.684Z,-5.99
2022-11-19T06:00:30.166Z,-5.97
2022-11-19T06:02:56.691Z,-6.06
2022-11-19T06:05:23.216Z,-6.20
2022-11-19T06:07:49.719Z,-6.20
2022-11-19T06:10:16.370Z,-6.35
2022-11-19T06:12:45.828Z,-6.09
2022-11-19T06:15:13.230Z,-6.14
2022-11-19T06:17:39.743Z,-6.12
2022-11-19T06:20:08.825Z,-6.06
2022-11-19T06:22:36.328Z,-6.14
2022-11-19T06:25:04.386Z,-6.27
2022-11-19T06:27:31.003Z,-6.23
2022-11-19T06:29:57.557Z,-6.11
2022-11-19T06:32:24.098Z,-6.07
2022-11-19T06:34:50.602Z,-5.98
2022-11-19T06:37:17.121Z,-6.03
2022-11-19T06:39:43.613Z,-6.01
2022-11-19T06:42:28.692Z,-5.97
2022-11-19T06:44:55.263Z,-5.95
2022-11-19T06:47:21.742Z,-6.06
2022-11-19T06:49:48.231Z,-6.07
2022-11-19T06:52:14.675Z,-5.96
2022-11-19T06:54:43.261Z,-5.87
2022-11-19T06:57:10.316Z,-5.93
2022-11-19T06:59:38.936Z,-5.94
2022-11-19T07:02:06.221Z,-6.02
2022-11-19T07:04:32.807Z,-5.95
2022-11-19T07:06:59.533Z,-5.93
2022-11-19T07:09:26.062Z,-5.89
2022-11-19T07:11:52.574Z,-5.88
2022-11-19T07:14:19.080Z,-5.92
2022-11-19T07:16:45.555Z,-5.97
2022-11-19T07:19:12.262Z,-5.96
2022-11-19T07:21:39.081Z,-5.81
2022-11-19T07:24:08.002Z,-5.80
2022-11-19T07:26:35.901Z,-5.78
2022-11-19T07:29:05.546Z,-5.87
2022-11-19T07:31:33.142Z,-5.89
2022-11-19T07:33:59.742Z,-5.85
2022-11-19T07:36:26.394Z,-5.71
2022-11-19T07:38:52.859Z,-5.72
2022-11-19T07:41:38.485Z,-5.73
2022-11-19T07:44:05.421Z,-5.63
2022-11-19T07:46:32.063Z,-5.66
2022-11-19T07:48:59.507Z,-5.55
2022-11-19T07:51:27.356Z,-5.52
2022-11-19T07:53:55.529Z,-5.64
2022-11-19T07:56:22.735Z,-5.56
2022-11-19T07:58:49.464Z,-5.51
2022-11-19T08:01:18.818Z,-5.50
2022-11-19T08:03:49.636Z,-5.45
2022-11-19T08:06:21.032Z,-5.19
2022-11-19T08:08:47.923Z,-5.09
2022-11-19T08:11:16.222Z,-5.21
2022-11-19T08:13:43.185Z,-5.20
2022-11-19T08:16:12.930Z,-5.28
2022-11-19T08:18:39.948Z,-5.24
2022-11-19T08:21:11.486Z,-5.21
2022-11-19T08:23:39.228Z,-5.06
2022-11-19T08:26:08.889Z,-5.09
2022-11-19T08:28:35.397Z,-5.04
2022-11-19T08:31:07.111Z,-5.03
2022-11-19T08:33:34.115Z,-4.95
2022-11-19T08:36:01.063Z,-4.90
2022-11-19T08:38:27.689Z,-4.77
2022-11-19T08:41:14.488Z,-4.72
2022-11-19T08:43:41.234Z,-4.78
2022-11-19T08:46:08.427Z,-4.52
2022-11-19T08:48:35.770Z,-4.57
2022-11-19T08:51:06.800Z,-4.43
2022-11-19T08:53:33.611Z,-4.49
2022-11-19T08:56:00.081Z,-4.52
2022-11-19T08:58:26.597Z,-4.30
2022-11-19T09:00:53.471Z,-4.29
2022-11-19T09:03:20.016Z,-4.36
2022-11-19T09:05:46.525Z,-4.21
2022-11-19T09:08:12.969Z,-4.07
2022-11-19T09:10:39.700Z,-4.04
2022-11-19T09:13:06.304Z,-3.96
2022-11-19T09:15:33.112Z,-3.94
2022-11-19T09:17:59.626Z,-3.87
2022-11-19T09:20:26.146Z,-3.76
2022-11-19T09:22:52.669Z,-3.97
2022-11-19T09:25:19.241Z,-3.88
2022-11-19T09:27:45.742Z,-3.80
2022-11-19T09:30:12.746Z,-3.91
2022-11-19T09:32:39.243Z,-3.79
2022-11-19T09:35:06.182Z,-3.66
2022-11-19T09:37:34.159Z,-3.66
2022-11-19T09:40:00.862Z,-3.62
2022-11-19T09:42:30.253Z,-3.60
2022-11-19T09:45:09.111Z,-3.56
2022-11-19T09:47:47.748Z,-3.46
2022-11-19T09:50:26.600Z,-3.39
2022-11-19T09:53:02.023Z,-3.08
2022-11-19T09:55:37.233Z,-2.96
2022-11-19T09:58:11.031Z,-2.83
2022-11-19T10:00:37.525Z,-2.84
2022-11-19T10:03:14.685Z,-2.77
2022-11-19T10:06:12.071Z,-3.03
2022-11-19T10:08:53.641Z,-2.69
2022-11-19T10:11:20.099Z,-2.70
2022-11-19T10:13:56.118Z,-2.77
2022-11-19T10:16:46.438Z,-2.81
2022-11-19T10:19:27.944Z,-2.56
2022-11-19T10:22:02.395Z,-2.53
2022-11-19T10:24:39.128Z,-2.58
2022-11-19T10:27:27.684Z,-2.33
2022-11-19T10:29:59.174Z,-2.17
2022-11-19T10:32:28.653Z,-2.09
2022-11-19T10:34:58.690Z,-2.05
2022-11-19T10:37:31.560Z,-2.07
2022-11-19T10:40:18.029Z,-1.93
2022-11-19T10:43:13.064Z,-2.02
2022-11-19T10:45:39.534Z,-1.95
2022-11-19T10:48:22.128Z,-1.86
2022-11-19T10:50:49.273Z,-1.72
2022-11-19T10:53:18.596Z,-1.65
2022-11-19T10:55:54.049Z,-1.59
2022-11-19T10:58:29.009Z,-1.53
2022-11-19T11:00:57.939Z,-1.47
2022-11-19T11:03:33.527Z,-1.39
2022-11-19T11:06:05.028Z,-1.49
2022-11-19T11:08:32.778Z,-1.42
2022-11-19T11:10:59.940Z,-1.17
2022-11-19T11:13:56.749Z,-1.22
2022-11-19T11:16:27.943Z,-1.02
2022-11-19T11:18:58.062Z,-0.92
2022-11-19T11:21:28.826Z,-0.80
2022-11-19T11:23:56.580Z,-0.69
2022-11-19T11:26:26.280Z,-0.94
2022-11-19T11:29:13.979Z,-0.94
2022-11-19T11:31:45.234Z,-1.03
2022-11-19T11:34:28.769Z,-0.85
2022-11-19T11:36:56.800Z,-0.75
2022-11-19T11:39:36.869Z,-0.73
2022-11-19T11:42:06.679Z,-0.77
2022-11-19T11:44:36.982Z,-0.91
2022-11-19T11:47:20.609Z,-0.92
2022-11-19T11:50:06.884Z,-0.93
2022-11-19T11:52:46.776Z,-0.99
2022-11-19T11:55:15.297Z,-0.79
2022-11-19T11:57:56.333Z,-0.73
2022-11-19T12:00:36.387Z,-0.61
2022-11-19T12:03:06.848Z,-0.62
2022-11-19T12:05:49.974Z,-0.56
2022-11-19T12:08:58.485Z,-0.58
2022-11-19T12:11:56.067Z,-0.61
2022-11-19T12:14:31.918Z,-0.73
2022-11-19T12:17:00.015Z,-0.66
2022-11-19T12:19:41.221Z,-0.71
2022-11-19T12:22:37.281Z,-0.71
2022-11-19T12:25:32.667Z,-0.72
2022-11-19T12:28:20.787Z,-0.60
2022-11-19T12:30:53.220Z,-0.54
2022-11-19T12:33:47.755Z,-0.50
2022-11-19T12:36:37.586Z,-0.50
2022-11-19T12:39:22.937Z,-0.46
2022-11-19T12:41:58.480Z,-0.38
2022-11-19T12:45:01.139Z,-0.39
2022-11-19T12:47:56.519Z,-0.32
2022-11-19T12:50:28.994Z,-0.26
2022-11-19T12:53:20.051Z,-0.28
2022-11-19T12:55:49.498Z,-0.25
2022-11-19T12:58:16.010Z,-0.26
2022-11-19T13:00:52.394Z,-0.26
2022-11-19T13:03:28.066Z,-0.29
2022-11-19T13:05:59.287Z,-0.25
2022-11-19T13:08:47.226Z,-0.36
2022-11-19T13:11:19.489Z,-0.28
2022-11-19T13:13:54.902Z,-0.27
2022-11-19T13:16:25.043Z,-0.34
2022-11-19T13:18:53.852Z,-0.39
2022-11-19T13:21:27.534Z,-0.32
2022-11-19T13:23:55.692Z,-0.23
2022-11-19T13:26:34.708Z,0.03
2022-11-19T13:29:30.373Z,0.18
2022-11-19T13:32:02.008Z,0.13
2022-11-19T13:34:49.378Z,-0.01
2022-11-19T13:37:18.954Z,-0.07
2022-11-19T13:39:51.969Z,-0.07
2022-11-19T13:42:39.722Z,-0.10
2022-11-19T13:45:13.322Z,0.04
2022-11-19T13:47:48.868Z,-0.09
2022-11-19T13:50:32.979Z,-0.14
2022-11-19T13:53:13.226Z,-0.23
2022-11-19T13:55:41.994Z,-0.17
2022-11-19T13:58:14.576Z,-0.15
2022-11-19T14:00:43.848Z,-0.09
2022-11-19T14:03:35.148Z,-0.01
2022-11-19T14:06:25.971Z,0.11
2022-11-19T14:09:15.227Z,0.02
2022-11-19T14:12:20.574Z,-0.12
2022-11-19T14:15:32.733Z,-0.28
2022-11-19T14:18:26.193Z,-0.51
2022-11-19T14:21:10.913Z,-0.49
2022-11-19T14:24:05.913Z,-0.45
2022-11-19T14:26:41.554Z,-0.56
2022-11-19T14:29:20.470Z,-0.63
2022-11-19T14:32:06.218Z,-0.59
2022-11-19T14:34:34.854Z,-0.63
2022-11-19T14:37:10.989Z,-0.69
2022-11-19T14:39:45.214Z,-0.80
2022-11-19T14:42:15.995Z,-0.76
2022-11-19T14:45:01.100Z,-0.73
2022-11-19T14:47:33.252Z,-0.74
2022-11-19T14:50:03.825Z,-0.72
2022-11-19T14:52:49.268Z,-0.76
2022-11-19T14:55:32.988Z,-0.87
2022-11-19T14:58:06.134Z,-0.84
2022-11-19T15:00:38.007Z,-0.83
2022-11-19T15:03:11.745Z,-0.86
2022-11-19T15:05:44.712Z,-0.90
2022-11-19T15:08:17.355Z,-0.95
2022-11-19T15:11:02.232Z,-1.00
2022-11-19T15:13:31.261Z,-1.11
2022-11-19T15:16:05.787Z,-1.13
2022-11-19T15:18:41.456Z,-1.18
2022-11-19T15:21:35.888Z,-1.19
2022-11-19T15:24:30.265Z,-1.18
2022-11-19T15:27:20.039Z,-1.30
2022-11-19T15:29:49.485Z,-1.38
2022-11-19T15:33:15.591Z,-1.45
2022-11-19T15:36:07.289Z,-1.68
2022-11-19T15:38:38.174Z,-1.93
2022-11-19T15:41:06.149Z,-1.93
2022-11-19T15:43:41.111Z,-1.98
2022-11-19T15:46:11.873Z,-2.15
2022-11-19T15:48:52.310Z,-2.22
2022-11-19T15:51:20.257Z,-2.34
2022-11-19T15:54:04.763Z,-2.37
2022-11-19T15:56:39.128Z,-2.34
2022-11-19T15:59:08.964Z,-2.31
2022-11-19T16:01:35.943Z,-2.42
2022-11-19T16:04:15.407Z,-2.47
2022-11-19T16:06:48.908Z,-2.49
2022-11-19T16:09:23.020Z,-2.45
2022-11-19T16:12:08.355Z,-2.49
2022-11-19T16:14:53.717Z,-2.67
2022-11-19T16:17:43.516Z,-2.53
2022-11-19T16:20:10.232Z,-2.49
2022-11-19T16:22:38.736Z,-2.44
2022-11-19T16:25:14.199Z,-2.44
2022-11-19T16:27:45.369Z,-2.39
2022-11-19T16:30:26.760Z,-2.42
2022-11-19T16:32:58.136Z,-2.58
2022-11-19T16:35:29.932Z,-2.67
2022-11-19T16:37:58.301Z,-2.68
2022-11-19T16:40:26.075Z,-2.65
2022-11-19T16:42:59.358Z,-2.71
2022-11-19T16:45:31.964Z,-2.63
2022-11-19T16:48:01.106Z,-2.59
2022-11-19T16:50:34.646Z,-2.63
2022-11-19T16:53:02.654Z,-2.65
2022-11-19T16:55:34.078Z,-2.72
2022-11-19T16:58:09.673Z,-2.76
2022-11-19T17:00:37.448Z,-2.76
2022-11-19T17:03:32.088Z,-2.81
2022-11-19T17:05:59.036Z,-2.97
2022-11-19T17:08:33.401Z,-3.02
2022-11-19T17:11:38.651Z,-3.07
2022-11-19T17:14:40.604Z,-3.06
2022-11-19T17:17:23.601Z,-3.08
2022-11-19T17:19:50.115Z,-3.09
2022-11-19T17:22:21.617Z,-3.19
2022-11-19T17:24:48.265Z,-3.31
2022-11-19T17:27:52.910Z,-3.50
2022-11-19T17:30:21.383Z,-3.63
2022-11-19T17:32:51.835Z,-3.74
2022-11-19T17:35:41.117Z,-3.93
2022-11-19T17:38:21.370Z,-3.76
2022-11-19T17:40:51.428Z,-4.05
2022-11-19T17:43:41.767Z,-3.97
2022-11-19T17:46:08.319Z,-3.76
2022-11-19T17:48:36.805Z,-3.50
2022-11-19T17:51:03.332Z,-3.47
2022-11-19T17:53:29.809Z,-3.45
2022-11-19T17:55:57.533Z,-3.57
2022-11-19T17:58:24.110Z,-3.64
2022-11-19T18:00:50.665Z,-3.79
2022-11-19T18:03:17.804Z,-3.75
2022-11-19T18:05:48.656Z,-3.75
2022-11-19T18:08:18.053Z,-3.67
2022-11-19T18:10:46.994Z,-4.07
2022-11-19T18:13:18.503Z,-4.17
2022-11-19T18:15:44.990Z,-4.24
2022-11-19T18:18:11.499Z,-4.35
2022-11-19T18:20:38.076Z,-4.30
2022-11-19T18:23:04.637Z,-4.45
2022-11-19T18:25:31.412Z,-4.44
2022-11-19T18:27:57.982Z,-4.39
2022-11-19T18:30:24.713Z,-4.35
2022-11-19T18:32:51.192Z,-4.44
2022-11-19T18:35:19.705Z,-4.49
2022-11-19T18:37:46.652Z,-4.36
2022-11-19T18:40:14.544Z,-4.39
2022-11-19T18:43:04.605Z,-4.53
2022-11-19T18:45:31.601Z,-4.30
2022-11-19T18:47:58.117Z,-4.37
2022-11-19T18:50:29.557Z,-4.50
2022-11-19T18:52:56.510Z,-4.37
2022-11-19T18:55:23.083Z,-4.29
2022-11-19T18:57:49.525Z,-4.17
2022-11-19T19:00:16.247Z,-4.33
2022-11-19T19:02:42.766Z,-4.26
2022-11-19T19:05:09.562Z,-4.17
2022-11-19T19:07:36.136Z,-4.41
2022-11-19T19:10:03.621Z,-4.20
2022-11-19T19:12:30.142Z,-4.35
2022-11-19T19:14:57.433Z,-4.24
2022-11-19T19:17:23.977Z,-4.37
2022-11-19T19:19:50.547Z,-4.39
2022-11-19T19:22:18.227Z,-4.48
2022-11-19T19:24:44.818Z,-4.52
2022-11-19T19:27:11.362Z,-4.65
2022-11-19T19:29:39.598Z,-4.49
2022-11-19T19:32:06.705Z,-4.49
2022-11-19T19:34:33.383Z,-4.54
2022-11-19T19:36:59.924Z,-4.41
2022-11-19T19:39:26.461Z,-4.56
2022-11-19T19:41:53.537Z,-4.84
2022-11-19T19:44:20.024Z,-4.94
2022-11-19T19:46:51.827Z,-4.94
2022-11-19T19:49:18.403Z,-4.84
2022-11-19T19:51:44.983Z,-4.91
2022-11-19T19:54:11.517Z,-4.97
2022-11-19T19:56:38.772Z,-5.09
2022-11-19T19:59:05.407Z,-4.79
2022-11-19T20:01:34.770Z,-4.98
2022-11-19T20:04:04.428Z,-4.68
2022-11-19T20:06:33.198Z,-4.59
2022-11-19T20:09:02.128Z,-4.73
2022-11-19T20:11:32.162Z,-4.71
2022-11-19T20:13:59.783Z,-4.77
2022-11-19T20:16:28.837Z,-4.77
2022-11-19T20:18:56.104Z,-4.95
2022-11-19T20:21:25.314Z,-4.98
2022-11-19T20:23:52.106Z,-5.22
2022-11-19T20:26:21.539Z,-5.07
2022-11-19T20:28:48.732Z,-4.80
2022-11-19T20:31:18.390Z,-4.98
2022-11-19T20:33:46.680Z,-4.87
2022-11-19T20:36:15.480Z,-4.97
2022-11-19T20:38:45.876Z,-4.88
2022-11-19T20:41:33.282Z,-4.99
2022-11-19T20:44:33.760Z,-5.13
2022-11-19T20:47:03.029Z,-5.24
2022-11-19T20:49:35.050Z,-4.97
2022-11-19T20:52:02.117Z,-5.21
2022-11-19T20:54:28.851Z,-5.31
2022-11-19T20:56:56.626Z,-5.34
2022-11-19T20:59:25.807Z,-5.42
2022-11-19T21:01:53.734Z,-5.50
2022-11-19T21:04:21.143Z,-5.31
2022-11-19T21:06:49.759Z,-5.22
2022-11-19T21:09:16.473Z,-5.13
2022-11-19T21:11:43.461Z,-5.23
2022-11-19T21:14:10.005Z,-5.30
2022-11-19T21:16:36.589Z,-5.45
2022-11-19T21:19:03.414Z,-5.42
2022-11-19T21:21:29.950Z,-5.35
2022-11-19T21:23:56.617Z,-5.40
2022-11-19T21:26:25.166Z,-5.28
2022-11-19T21:28:54.512Z,-5.36
2022-11-19T21:31:41.615Z,-5.24
2022-11-19T21:34:13.703Z,-5.28
2022-11-19T21:36:41.798Z,-5.45
2022-11-19T21:39:09.850Z,-5.38
2022-11-19T21:41:37.165Z,-5.39
2022-11-19T21:44:04.689Z,-5.45
2022-11-19T21:46:31.351Z,-5.44
2022-11-19T21:48:57.926Z,-5.37
2022-11-19T21:51:25.326Z,-5.60
2022-11-19T21:53:55.511Z,-5.42
2022-11-19T21:56:22.008Z,-5.37
2022-11-19T21:58:48.510Z,-5.50
2022-11-19T22:01:15.285Z,-5.62
2022-11-19T22:03:41.799Z,-5.84
2022-11-19T22:06:10.369Z,-5.90
2022-11-19T22:08:39.648Z,-5.82
2022-11-19T22:11:26.388Z,-5.61
2022-11-19T22:13:53.542Z,-5.88
2022-11-19T22:16:20.927Z,-5.75
2022-11-19T22:18:47.746Z,-5.78
2022-11-19T22:21:14.303Z,-5.83
2022-11-19T22:23:40.998Z,-5.99
2022-11-19T22:26:10.488Z,-6.06
2022-11-19T22:28:37.870Z,-5.85
2022-11-19T22:31:04.811Z,-5.93
2022-11-19T22:33:33.282Z,-5.82
2022-11-19T22:36:06.518Z,-5.71
2022-11-19T22:38:37.319Z,-5.69
2022-11-19T22:41:09.718Z,-5.68
2022-11-19T22:43:37.772Z,-5.64
2022-11-19T22:46:04.770Z,-5.80
2022-11-19T22:48:32.665Z,-6.04
2022-11-19T22:50:59.551Z,-5.87
2022-11-19T22:53:26.070Z,-5.80
2022-11-19T22:55:52.606Z,-5.66
2022-11-19T22:58:19.083Z,-5.63
2022-11-19T23:00:47.993Z,-5.66
2022-11-19T23:03:15.251Z,-5.90
2022-11-19T23:05:41.785Z,-5.86
2022-11-19T23:08:10.553Z,-5.81
2022-11-19T23:10:37.036Z,-5.75
2022-11-19T23:13:22.695Z,-5.71
2022-11-19T23:16:06.519Z,-5.95
2022-11-19T23:18:41.684Z,-5.98
2022-11-19T23:21:22.927Z,-6.03
2022-11-19T23:23:50.463Z,-6.11
2022-11-19T23:26:22.155Z,-6.15
2022-11-19T23:28:49.048Z,-6.14
2022-11-19T23:31:18.849Z,-6.29
2022-11-19T23:33:45.853Z,-6.16
2022-11-19T23:36:15.443Z,-6.37
2022-11-19T23:38:42.296Z,-6.23
2022-11-19T23:41:12.023Z,-6.09
2022-11-19T23:43:39.032Z,-6.16
2022-11-19T23:46:17.853Z,-6.16
2022-11-19T23:48:45.900Z,-6.05
2022-11-19T23:51:15.325Z,-5.97
2022-11-19T23:53:42.798Z,-5.92
2022-11-19T23:56:09.981Z,-5.93
2022-11-19T23:58:36.934Z,-6.01
